Time;durP1;ratioP1;P1;durP2;ratioP2;P2;SDS_P1;SDS_P2;PMS_P1;PMS_P2;Temp;Humidity;BMP_temperature;BMP_pressure;BME280_temperature;BME280_humidity;BME280_pressure;Samples;Min_cycle;Max_cycle;Signal;HPM_P1;HPM_P2
2021/06/16 00:00:38;;;;;;;6.40;5.90;;;22.70;28.60;;;;;;5095553;28;20171;-78
2021/06/16 00:03:04;;;;;;;6.00;5.50;;;22.70;28.70;;;;;;5095161;28;20726;-77
2021/06/16 00:05:30;;;;;;;5.60;5.20;;;22.70;28.90;;;;;;5095204;28;20228;-78
2021/06/16 00:07:57;;;;;;;5.60;5.10;;;22.70;28.80;;;;;;5094671;28;20183;-78
2021/06/16 00:10:26;;;;;;;6.17;5.67;;;22.70;28.80;;;;;;5095071;28;20443;-77
2021/06/16 00:12:52;;;;;;;6.23;5.63;;;22.70;28.90;;;;;;5095482;28;20525;-77
2021/06/16 00:15:25;;;;;;;6.80;6.20;;;22.70;28.90;;;;;;5093507;28;20797;-77
2021/06/16 00:17:51;;;;;;;5.70;5.30;;;22.70;29.00;;;;;;5095585;28;20412;-78
2021/06/16 00:20:16;;;;;;;5.87;5.37;;;22.70;29.00;;;;;;5095184;28;20471;-77
2021/06/16 00:22:43;;;;;;;5.83;5.43;;;22.70;29.00;;;;;;5095247;28;20197;-78
2021/06/16 00:25:09;;;;;;;6.20;5.70;;;22.60;29.00;;;;;;5094415;28;20553;-77
2021/06/16 00:27:36;;;;;;;5.90;5.43;;;22.60;29.00;;;;;;5093441;28;20817;-77
2021/06/16 00:30:02;;;;;;;6.67;6.10;;;22.70;29.00;;;;;;5094403;28;20413;-78
2021/06/16 00:32:28;;;;;;;5.60;5.10;;;22.60;29.10;;;;;;5094331;28;21026;-77
2021/06/16 00:34:53;;;;;;;5.53;5.13;;;22.70;29.10;;;;;;5094263;28;20424;-76
2021/06/16 00:37:19;;;;;;;6.10;5.63;;;22.60;29.10;;;;;;5094105;28;20182;-78
2021/06/16 00:39:45;;;;;;;4.90;4.60;;;22.60;29.10;;;;;;5092567;28;20179;-78
2021/06/16 00:42:10;;;;;;;5.30;4.93;;;22.60;29.10;;;;;;5093482;28;20205;-77
2021/06/16 00:44:36;;;;;;;5.63;5.20;;;22.60;29.30;;;;;;5092501;28;20205;-77
2021/06/16 00:47:01;;;;;;;5.00;4.70;;;22.60;29.20;;;;;;5092705;28;20182;-77
2021/06/16 00:49:28;;;;;;;5.50;5.20;;;22.60;29.30;;;;;;5092999;28;20178;-77
2021/06/16 00:51:53;;;;;;;5.90;5.40;;;22.60;29.30;;;;;;5092618;28;20194;-77
2021/06/16 00:54:19;;;;;;;5.97;5.37;;;22.60;29.30;;;;;;5092492;28;20428;-77
2021/06/16 00:56:45;;;;;;;5.47;5.17;;;22.60;29.30;;;;;;5092406;28;20171;-77
2021/06/16 00:59:10;;;;;;;5.50;5.20;;;22.60;29.30;;;;;;5093484;28;20178;-79
2021/06/16 01:01:43;;;;;;;5.70;5.20;;;22.60;29.40;;;;;;5094948;28;20175;-78
2021/06/16 01:04:24;;;;;;;5.83;5.43;;;22.60;29.50;;;;;;5095991;28;20247;-78
2021/06/16 01:06:56;;;;;;;5.80;5.40;;;22.60;29.40;;;;;;5096025;28;20400;-78
2021/06/16 01:09:27;;;;;;;5.90;5.50;;;22.60;29.50;;;;;;5095380;28;20409;-78
2021/06/16 01:12:10;;;;;;;6.13;5.33;;;22.60;29.50;;;;;;5095220;28;20400;-78
2021/06/16 01:14:59;;;;;;;5.93;5.43;;;22.60;29.50;;;;;;5094794;28;20470;-78
2021/06/16 01:17:43;;;;;;;5.07;4.77;;;22.60;29.60;;;;;;5095589;28;20401;-78
2021/06/16 01:20:28;;;;;;;6.10;5.60;;;22.60;29.70;;;;;;5095455;28;20420;-78
2021/06/16 01:23:09;;;;;;;5.40;5.10;;;22.60;29.60;;;;;;5095039;28;20449;-78
2021/06/16 01:25:59;;;;;;;5.97;5.57;;;22.60;29.60;;;;;;5094231;28;20419;-78
2021/06/16 01:28:30;;;;;;;4.93;4.63;;;22.60;29.80;;;;;;5095099;28;20466;-78
2021/06/16 01:30:57;;;;;;;5.50;5.00;;;22.60;29.70;;;;;;5095590;28;20451;-79
2021/06/16 01:33:23;;;;;;;5.97;5.47;;;22.60;29.70;;;;;;5095021;28;20556;-77
2021/06/16 01:35:52;;;;;;;5.57;5.27;;;22.60;29.70;;;;;;5095093;28;20431;-77
2021/06/16 01:38:21;;;;;;;5.37;5.03;;;22.60;29.90;;;;;;5095323;28;20499;-78
2021/06/16 01:40:49;;;;;;;5.67;5.37;;;22.60;29.90;;;;;;5094697;28;20447;-78
2021/06/16 01:43:17;;;;;;;5.50;5.10;;;22.60;30.00;;;;;;5094283;28;20506;-79
2021/06/16 01:45:45;;;;;;;5.43;4.93;;;22.60;30.00;;;;;;5095169;28;20443;-79
2021/06/16 01:48:14;;;;;;;4.80;4.40;;;22.50;29.90;;;;;;5095118;28;20415;-78
2021/06/16 01:50:42;;;;;;;5.17;4.80;;;22.60;30.60;;;;;;5094108;28;20417;-78
2021/06/16 01:53:08;;;;;;;5.30;5.00;;;22.50;29.90;;;;;;5093948;28;20493;-78
2021/06/16 01:55:34;;;;;;;5.77;5.37;;;22.60;30.00;;;;;;5094967;28;20409;-78
2021/06/16 01:58:01;;;;;;;5.10;4.80;;;22.50;30.00;;;;;;5098718;28;20405;-77
2021/06/16 02:00:27;;;;;;;5.10;4.80;;;22.60;30.00;;;;;;5098741;28;20159;-78
2021/06/16 02:02:54;;;;;;;5.57;5.07;;;22.60;30.10;;;;;;5097642;28;20408;-78
2021/06/16 02:05:21;;;;;;;5.20;4.90;;;22.60;30.20;;;;;;5098539;28;20404;-78
2021/06/16 02:07:54;;;;;;;5.67;5.27;;;22.50;30.00;;;;;;5098869;28;20401;-77
2021/06/16 02:10:24;;;;;;;5.90;5.10;;;22.50;30.10;;;;;;5096850;28;20412;-78
2021/06/16 02:12:51;;;;;;;7.40;5.17;;;22.50;30.10;;;;;;5099057;28;20821;-79
2021/06/16 02:15:18;;;;;;;5.90;5.03;;;22.50;30.20;;;;;;5098732;28;20488;-79
2021/06/16 02:17:50;;;;;;;5.10;4.70;;;22.50;30.20;;;;;;5098814;28;20409;-77
2021/06/16 02:20:20;;;;;;;5.70;5.30;;;22.50;30.30;;;;;;5098826;28;20887;-78
2021/06/16 02:22:46;;;;;;;5.50;5.10;;;22.50;30.30;;;;;;5097864;28;20421;-78
2021/06/16 02:25:13;;;;;;;5.07;4.77;;;22.50;30.40;;;;;;5098253;28;20409;-78
2021/06/16 02:27:38;;;;;;;6.50;5.90;;;22.50;30.40;;;;;;5098845;28;20465;-77
2021/06/16 02:30:06;;;;;;;5.23;4.50;;;22.50;30.50;;;;;;5098660;28;20420;-78
2021/06/16 02:32:32;;;;;;;5.27;4.83;;;22.50;30.60;;;;;;5098201;28;20593;-79
2021/06/16 02:34:59;;;;;;;6.23;5.40;;;22.50;30.50;;;;;;5096767;28;20436;-78
2021/06/16 02:37:27;;;;;;;5.90;5.50;;;22.50;30.70;;;;;;5097686;28;20189;-78
2021/06/16 02:39:58;;;;;;;4.97;4.57;;;22.50;30.70;;;;;;5098215;28;20401;-77
2021/06/16 02:42:24;;;;;;;5.60;5.20;;;22.50;30.60;;;;;;5096877;28;20432;-78
2021/06/16 02:44:51;;;;;;;5.30;5.00;;;22.50;30.60;;;;;;5098051;28;20436;-79
2021/06/16 02:47:17;;;;;;;5.63;5.23;;;22.50;31.40;;;;;;5098313;28;20417;-79
2021/06/16 02:49:52;;;;;;;5.37;4.97;;;22.50;30.70;;;;;;5098040;28;20416;-78
2021/06/16 02:52:19;;;;;;;5.40;5.10;;;22.50;30.80;;;;;;5098006;28;20459;-78
2021/06/16 02:54:50;;;;;;;6.23;5.40;;;22.50;30.70;;;;;;5098006;28;21002;-79
2021/06/16 02:57:20;;;;;;;5.50;5.10;;;22.50;30.80;;;;;;5097414;28;20411;-78
2021/06/16 02:59:47;;;;;;;6.37;4.73;;;22.50;30.80;;;;;;5096923;28;20424;-78
2021/06/16 03:02:16;;;;;;;5.47;5.07;;;22.50;30.80;;;;;;5096871;28;20439;-78
2021/06/16 03:04:44;;;;;;;5.10;4.70;;;22.50;30.80;;;;;;5097345;28;21182;-78
2021/06/16 03:07:10;;;;;;;5.60;5.20;;;22.50;30.90;;;;;;5095865;28;20940;-77
2021/06/16 03:09:38;;;;;;;5.37;4.87;;;22.50;30.90;;;;;;5096676;28;20404;-78
2021/06/16 03:12:05;;;;;;;5.40;5.00;;;22.50;31.10;;;;;;5096596;28;20243;-79
2021/06/16 03:14:32;;;;;;;5.63;5.13;;;22.50;31.00;;;;;;5098214;28;20457;-79
2021/06/16 03:16:58;;;;;;;6.33;5.83;;;22.50;30.90;;;;;;5097566;28;20409;-79
2021/06/16 03:19:24;;;;;;;5.77;5.17;;;22.50;31.00;;;;;;5098239;28;21103;-78
2021/06/16 03:21:51;;;;;;;5.73;5.33;;;22.50;31.00;;;;;;5096648;28;20400;-78
2021/06/16 03:24:19;;;;;;;5.50;5.20;;;22.50;30.90;;;;;;5096440;28;20425;-78
2021/06/16 03:26:46;;;;;;;5.63;5.13;;;22.50;31.10;;;;;;5095444;28;20420;-78
2021/06/16 03:29:12;;;;;;;5.50;5.03;;;22.50;31.10;;;;;;5095908;28;20956;-78
2021/06/16 03:31:41;;;;;;;5.10;4.90;;;22.50;31.20;;;;;;5096004;28;20416;-78
2021/06/16 03:34:06;;;;;;;5.40;5.10;;;22.40;31.00;;;;;;5096275;28;20513;-78
2021/06/16 03:36:34;;;;;;;5.87;5.40;;;22.50;31.30;;;;;;5092432;28;20417;-78
2021/06/16 03:39:01;;;;;;;5.87;5.57;;;22.50;31.30;;;;;;5094657;28;20228;-78
2021/06/16 03:41:27;;;;;;;6.03;5.50;;;22.50;31.30;;;;;;5087853;28;20440;-78
2021/06/16 03:43:54;;;;;;;5.27;4.97;;;22.50;31.40;;;;;;5088667;28;20441;-78
2021/06/16 03:46:23;;;;;;;5.57;5.20;;;22.50;31.40;;;;;;5079120;28;20421;-78
2021/06/16 03:48:51;;;;;;;5.40;5.10;;;22.50;31.40;;;;;;5090071;28;20456;-78
2021/06/16 03:51:18;;;;;;;5.70;5.30;;;22.50;31.40;;;;;;5091301;28;20432;-77
2021/06/16 03:53:44;;;;;;;6.07;5.60;;;22.50;31.50;;;;;;5090716;28;20456;-78
2021/06/16 03:56:11;;;;;;;5.40;5.10;;;22.40;31.60;;;;;;5093997;28;20408;-78
2021/06/16 03:58:42;;;;;;;5.03;4.63;;;22.40;31.60;;;;;;5094206;28;20408;-78
2021/06/16 04:01:12;;;;;;;4.93;4.63;;;22.40;31.50;;;;;;5093244;28;20796;-78
2021/06/16 04:03:38;;;;;;;5.20;4.90;;;22.50;31.80;;;;;;5094331;28;20425;-78
2021/06/16 04:06:05;;;;;;;5.33;5.00;;;22.40;32.00;;;;;;5093822;28;20412;-78
2021/06/16 04:08:31;;;;;;;5.90;5.50;;;22.40;31.70;;;;;;5093693;28;20186;-78
2021/06/16 04:10:57;;;;;;;5.50;5.10;;;22.40;31.70;;;;;;5093435;28;20428;-78
2021/06/16 04:13:22;;;;;;;6.07;5.60;;;22.40;31.90;;;;;;5093150;28;20206;-78
2021/06/16 04:15:48;;;;;;;6.10;5.20;;;22.40;32.00;;;;;;5093927;28;20405;-78
2021/06/16 04:18:14;;;;;;;5.37;5.07;;;22.40;32.00;;;;;;5093609;28;20599;-79
2021/06/16 04:20:42;;;;;;;5.60;5.30;;;22.40;32.00;;;;;;5095613;28;20921;-78
2021/06/16 04:23:08;;;;;;;6.57;6.13;;;22.40;32.00;;;;;;5095997;28;20631;-78
2021/06/16 04:25:34;;;;;;;5.67;5.20;;;22.40;32.00;;;;;;5093881;28;20462;-78
2021/06/16 04:28:00;;;;;;;6.23;5.80;;;22.50;32.00;;;;;;5093839;28;20187;-78
2021/06/16 04:30:26;;;;;;;5.60;5.30;;;22.40;32.00;;;;;;5093125;28;20210;-77
2021/06/16 04:32:53;;;;;;;5.50;5.20;;;22.40;32.00;;;;;;5091787;28;20488;-79
2021/06/16 04:35:28;;;;;;;6.13;5.73;;;22.50;32.00;;;;;;5093600;28;20645;-80
2021/06/16 04:38:12;;;;;;;6.60;6.13;;;22.40;32.00;;;;;;5096443;28;20446;-79
2021/06/16 04:40:42;;;;;;;5.73;5.30;;;22.40;32.00;;;;;;5080744;28;20413;-78
2021/06/16 04:43:08;;;;;;;6.60;6.13;;;22.40;32.00;;;;;;5094188;28;20456;-78
2021/06/16 04:45:33;;;;;;;5.93;5.60;;;22.40;32.30;;;;;;5092839;28;20462;-78
2021/06/16 04:47:59;;;;;;;5.47;5.17;;;22.40;32.00;;;;;;5093840;28;20423;-81
2021/06/16 04:50:25;;;;;;;6.00;5.60;;;22.40;32.00;;;;;;5103320;28;20190;-80
2021/06/16 04:53:13;;;;;;;6.80;6.40;;;22.40;32.00;;;;;;5114247;28;20198;-81
2021/06/16 04:55:39;;;;;;;6.20;5.70;;;22.40;32.00;;;;;;5086557;28;20259;-78
2021/06/16 04:58:15;;;;;;;6.47;6.07;;;22.40;32.00;;;;;;5077302;28;20413;-79
2021/06/16 05:00:50;;;;;;;6.27;5.63;;;22.40;32.00;;;;;;5092730;28;20413;-81
2021/06/16 05:03:16;;;;;;;6.73;6.10;;;22.40;32.00;;;;;;5095785;28;21019;-80
2021/06/16 05:06:09;;;;;;;6.40;6.00;;;22.40;32.00;;;;;;5096932;28;20493;-80
2021/06/16 05:09:02;;;;;;;7.10;6.47;;;22.40;32.00;;;;;;5091906;28;20178;-80
2021/06/16 05:18:03;;;;;;;6.60;6.20;;;22.40;32.00;;;;;;5093995;28;20955;-78
2021/06/16 05:21:00;;;;;;;6.43;6.03;;;22.40;32.10;;;;;;5095289;28;20407;-80
2021/06/16 05:23:30;;;;;;;6.73;6.13;;;22.40;32.30;;;;;;5094868;28;20432;-81
2021/06/16 05:25:57;;;;;;;6.67;5.97;;;22.40;32.30;;;;;;5095570;28;20409;-80
2021/06/16 05:29:00;;;;;;;7.10;6.60;;;22.40;33.10;;;;;;5096831;28;20454;-80
2021/06/16 05:31:39;;;;;;;7.30;6.70;;;22.40;32.90;;;;;;5083891;28;20466;-78
2021/06/16 05:34:05;;;;;;;6.50;6.00;;;22.40;32.90;;;;;;5098238;28;20475;-80
2021/06/16 05:36:50;;;;;;;6.47;5.87;;;22.40;32.80;;;;;;5097216;28;20827;-79
2021/06/16 05:39:35;;;;;;;6.93;6.23;;;22.40;33.00;;;;;;5099895;28;20442;-80
2021/06/16 05:42:11;;;;;;;7.70;6.10;;;22.50;33.20;;;;;;5098957;28;20668;-79
2021/06/16 05:44:57;;;;;;;6.70;6.10;;;22.50;33.20;;;;;;5098686;28;20481;-80
2021/06/16 05:47:24;;;;;;;7.80;7.00;;;22.50;33.50;;;;;;5096557;28;20428;-79
2021/06/16 05:50:11;;;;;;;6.67;6.00;;;22.50;33.20;;;;;;5098911;28;20400;-79
2021/06/16 05:52:36;;;;;;;7.90;6.13;;;22.40;33.40;;;;;;5098428;28;20875;-80
2021/06/16 05:55:04;;;;;;;7.13;6.30;;;22.50;33.60;;;;;;5097355;28;20433;-81
2021/06/16 05:57:29;;;;;;;7.23;6.53;;;22.40;33.20;;;;;;5100422;28;20515;-80
2021/06/16 05:59:55;;;;;;;9.97;5.90;;;22.40;33.10;;;;;;5097526;28;20422;-79
2021/06/16 06:02:20;;;;;;;6.63;6.13;;;22.40;32.90;;;;;;5090731;28;20182;-78
2021/06/16 06:04:46;;;;;;;8.20;6.70;;;22.40;32.80;;;;;;5094571;28;20202;-78
2021/06/16 06:07:12;;;;;;;7.13;6.63;;;22.40;32.70;;;;;;5094195;28;20209;-78
2021/06/16 06:09:37;;;;;;;6.30;5.90;;;22.40;32.50;;;;;;5094053;28;20505;-78
2021/06/16 06:12:03;;;;;;;6.90;6.40;;;22.40;32.40;;;;;;5093884;28;20194;-77
2021/06/16 06:14:33;;;;;;;6.53;5.90;;;22.40;32.20;;;;;;5092151;28;20645;-77
2021/06/16 06:16:59;;;;;;;6.00;5.40;;;22.40;32.00;;;;;;5093364;28;20415;-77
2021/06/16 06:19:26;;;;;;;5.67;5.30;;;22.40;32.00;;;;;;5094393;28;20413;-79
2021/06/16 06:21:51;;;;;;;6.80;6.13;;;22.40;32.00;;;;;;5095382;28;20727;-78
2021/06/16 06:24:17;;;;;;;6.77;6.17;;;22.50;32.00;;;;;;5094082;28;20471;-79
2021/06/16 06:26:43;;;;;;;6.00;5.60;;;22.40;32.00;;;;;;5095167;28;20412;-78
2021/06/16 06:29:08;;;;;;;6.43;5.93;;;22.50;32.00;;;;;;5094617;28;20640;-77
2021/06/16 06:31:34;;;;;;;6.40;5.80;;;22.50;32.10;;;;;;5094392;28;20187;-78
2021/06/16 06:34:00;;;;;;;6.30;5.90;;;22.50;32.10;;;;;;5093758;28;20206;-78
2021/06/16 06:36:25;;;;;;;6.23;5.73;;;22.50;32.00;;;;;;5092240;28;20717;-78
2021/06/16 06:38:51;;;;;;;6.67;6.07;;;22.50;32.00;;;;;;5087031;28;20171;-78
2021/06/16 06:41:17;;;;;;;7.77;5.60;;;22.50;32.10;;;;;;5091541;28;20254;-79
2021/06/16 06:43:43;;;;;;;11.23;5.93;;;22.50;32.10;;;;;;5093206;28;20475;-79
2021/06/16 06:46:10;;;;;;;7.60;5.67;;;22.50;32.10;;;;;;5095283;28;20879;-78
2021/06/16 06:48:35;;;;;;;6.40;6.00;;;22.50;32.00;;;;;;5095645;28;20412;-77
2021/06/16 06:51:01;;;;;;;6.37;6.00;;;22.50;32.10;;;;;;5096081;28;20550;-78
2021/06/16 06:53:29;;;;;;;5.53;5.13;;;22.50;32.00;;;;;;5097515;28;20203;-78
2021/06/16 06:55:58;;;;;;;5.97;5.57;;;22.50;32.00;;;;;;5097751;28;20536;-78
2021/06/16 06:58:25;;;;;;;6.30;5.63;;;22.50;32.00;;;;;;5095677;28;20405;-79
2021/06/16 07:00:53;;;;;;;6.47;6.00;;;22.60;32.10;;;;;;5096959;28;20971;-79
2021/06/16 07:03:20;;;;;;;6.63;6.20;;;22.50;32.00;;;;;;5096278;28;20493;-80
2021/06/16 07:05:46;;;;;;;6.27;5.80;;;22.50;32.00;;;;;;5094956;28;20460;-80
2021/06/16 07:08:12;;;;;;;6.60;6.00;;;22.60;32.10;;;;;;5095884;28;20413;-80
2021/06/16 07:10:37;;;;;;;7.27;6.77;;;22.60;32.10;;;;;;5097950;28;20424;-79
2021/06/16 07:13:04;;;;;;;5.77;5.37;;;22.60;32.10;;;;;;5097373;28;20201;-79
2021/06/16 07:15:30;;;;;;;6.70;6.10;;;22.60;32.20;;;;;;5096672;28;20222;-79
2021/06/16 07:17:56;;;;;;;6.47;5.97;;;22.60;32.10;;;;;;5096382;28;20409;-80
2021/06/16 07:20:25;;;;;;;5.73;5.33;;;22.60;32.10;;;;;;5084904;28;20424;-79
2021/06/16 07:22:53;;;;;;;6.17;5.77;;;22.60;32.10;;;;;;5076001;28;20229;-80
2021/06/16 07:25:19;;;;;;;6.63;6.07;;;22.60;32.10;;;;;;5074831;28;20413;-78
2021/06/16 07:27:45;;;;;;;7.10;6.47;;;22.60;32.20;;;;;;5074700;28;20413;-79
2021/06/16 07:30:12;;;;;;;6.40;6.00;;;22.60;32.20;;;;;;5073973;28;20421;-80
2021/06/16 07:33:12;;;;;;;6.57;6.00;;;22.60;32.10;;;;;;5066257;28;20476;-77
2021/06/16 07:35:44;;;;;;;6.70;6.20;;;22.60;32.10;;;;;;5090050;28;20537;-77
2021/06/16 07:38:13;;;;;;;6.50;5.97;;;22.60;32.30;;;;;;5093144;28;20455;-79
2021/06/16 07:40:39;;;;;;;7.13;6.63;;;22.70;32.50;;;;;;5092345;28;20499;-77
2021/06/16 07:43:05;;;;;;;6.93;6.43;;;22.70;32.20;;;;;;5093644;28;20824;-77
2021/06/16 07:45:31;;;;;;;7.50;6.90;;;22.70;33.00;;;;;;5093153;28;20459;-78
2021/06/16 07:48:33;;;;;;;7.80;6.27;;;22.70;32.20;;;;;;5095944;28;20194;-80
2021/06/16 07:50:59;;;;;;;6.70;6.17;;;22.70;32.40;;;;;;5093191;28;20452;-78
2021/06/16 07:53:25;;;;;;;6.73;6.23;;;22.70;32.50;;;;;;5096345;28;20512;-79
2021/06/16 07:55:52;;;;;;;7.10;6.50;;;22.70;32.50;;;;;;5098512;28;20694;-78
2021/06/16 07:58:18;;;;;;;6.90;6.50;;;22.70;32.40;;;;;;5099093;28;20266;-79
2021/06/16 08:00:44;;;;;;;7.30;6.70;;;22.70;32.50;;;;;;5097786;28;20412;-78
2021/06/16 08:03:10;;;;;;;6.97;6.47;;;22.70;32.20;;;;;;5094982;28;20440;-78
2021/06/16 08:05:42;;;;;;;11.10;10.13;;;22.70;32.30;;;;;;5095610;28;20194;-80
2021/06/16 08:08:10;;;;;;;10.30;7.80;;;22.70;32.60;;;;;;5096574;28;20174;-78
2021/06/16 08:10:43;;;;;;;7.20;6.57;;;22.70;32.20;;;;;;5096135;28;20957;-80
2021/06/16 08:13:31;;;;;;;7.13;6.53;;;22.70;32.20;;;;;;5097939;28;20454;-80
2021/06/16 08:15:59;;;;;;;7.17;6.63;;;22.70;32.20;;;;;;5095177;28;20409;-79
2021/06/16 08:18:25;;;;;;;6.80;6.40;;;22.80;32.40;;;;;;5097602;28;20460;-79
2021/06/16 08:20:51;;;;;;;7.03;6.53;;;22.70;32.80;;;;;;5098241;28;20409;-79
2021/06/16 08:23:17;;;;;;;7.60;6.93;;;22.70;32.70;;;;;;5098170;28;20214;-78
2021/06/16 08:25:43;;;;;;;7.43;6.63;;;22.70;32.80;;;;;;5097307;28;20457;-80
2021/06/16 08:28:08;;;;;;;7.00;6.53;;;22.70;32.90;;;;;;5094134;28;20277;-79
2021/06/16 08:30:35;;;;;;;7.40;6.80;;;22.80;33.00;;;;;;5097291;28;20540;-80
2021/06/16 08:33:11;;;;;;;7.80;7.00;;;22.80;33.10;;;;;;5078814;28;20193;-79
2021/06/16 08:35:37;;;;;;;6.67;6.17;;;22.80;32.90;;;;;;5070252;28;20425;-80
2021/06/16 08:38:03;;;;;;;7.20;6.50;;;22.80;33.10;;;;;;5092708;28;20423;-79
2021/06/16 08:40:29;;;;;;;7.30;6.60;;;22.80;33.30;;;;;;5094940;28;20265;-78
2021/06/16 08:42:55;;;;;;;7.13;6.70;;;22.80;33.00;;;;;;5096985;28;20501;-79
2021/06/16 08:45:20;;;;;;;7.23;6.63;;;22.80;33.90;;;;;;5094643;28;20174;-77
2021/06/16 08:48:04;;;;;;;7.83;7.00;;;22.80;32.80;;;;;;5092522;28;20174;-78
2021/06/16 08:50:30;;;;;;;8.07;6.90;;;22.80;33.00;;;;;;5080666;28;20860;-79
2021/06/16 08:53:23;;;;;;;6.90;6.40;;;22.80;33.20;;;;;;5096448;28;20417;-80
2021/06/16 08:55:48;;;;;;;8.70;6.00;;;22.80;32.80;;;;;;5091545;28;20801;-79
2021/06/16 08:58:14;;;;;;;7.13;6.63;;;22.80;32.30;;;;;;5096744;28;20424;-77
2021/06/16 09:00:40;;;;;;;6.73;6.30;;;22.80;32.30;;;;;;5091607;28;20181;-79
2021/06/16 09:03:05;;;;;;;6.67;6.27;;;22.80;32.50;;;;;;5092305;28;20561;-78
2021/06/16 09:05:38;;;;;;;6.63;6.23;;;22.80;32.90;;;;;;5092937;28;20439;-78
2021/06/16 09:08:24;;;;;;;6.50;6.10;;;22.80;32.60;;;;;;5091507;28;20266;-77
2021/06/16 09:10:56;;;;;;;6.50;5.90;;;22.80;32.50;;;;;;5093066;28;20520;-79
2021/06/16 09:13:28;;;;;;;6.43;6.03;;;22.80;32.80;;;;;;5093918;28;20488;-78
2021/06/16 09:15:55;;;;;;;6.80;6.30;;;22.80;32.70;;;;;;5095389;28;20421;-78
2021/06/16 09:18:21;;;;;;;6.90;6.50;;;22.80;32.50;;;;;;5093054;28;20428;-77
2021/06/16 09:20:48;;;;;;;6.37;5.77;;;22.80;32.60;;;;;;5096229;28;20477;-79
2021/06/16 09:23:16;;;;;;;6.20;5.80;;;22.90;32.40;;;;;;5097552;28;20472;-79
2021/06/16 09:25:43;;;;;;;8.00;6.10;;;22.80;32.30;;;;;;5096129;28;20417;-79
2021/06/16 09:28:09;;;;;;;6.23;5.70;;;22.90;32.70;;;;;;5097702;28;20423;-78
2021/06/16 09:30:59;;;;;;;6.87;6.27;;;22.90;32.40;;;;;;5096489;28;20452;-80
2021/06/16 09:33:26;;;;;;;6.50;6.10;;;22.90;32.40;;;;;;5098123;28;20435;-79
2021/06/16 09:36:04;;;;;;;6.87;6.47;;;22.90;32.40;;;;;;5095660;28;20789;-78
2021/06/16 09:38:32;;;;;;;7.10;6.50;;;22.90;32.40;;;;;;5080701;28;20941;-80
2021/06/16 09:41:26;;;;;;;6.30;5.90;;;22.90;32.40;;;;;;5093328;28;20428;-78
2021/06/16 09:44:01;;;;;;;6.57;5.50;;;22.90;31.90;;;;;;5096503;28;20480;-80
2021/06/16 09:46:30;;;;;;;5.60;5.10;;;22.90;31.40;;;;;;5081876;28;20416;-79
2021/06/16 09:49:03;;;;;;;5.67;5.37;;;22.90;32.10;;;;;;5077212;28;20420;-79
2021/06/16 09:51:33;;;;;;;6.73;6.13;;;22.90;31.70;;;;;;5096771;28;20413;-78
2021/06/16 09:54:18;;;;;;;8.80;5.50;;;22.90;31.70;;;;;;5096070;28;20468;-80
2021/06/16 09:57:03;;;;;;;6.53;6.17;;;22.90;31.60;;;;;;5095267;28;20432;-80
2021/06/16 10:03:38;;;;;;;6.00;5.50;;;23.00;31.80;;;;;;5085583;28;20746;-80
2021/06/16 10:09:26;;;;;;;7.23;6.20;;;23.00;31.20;;;;;;5033693;28;20980;-80
2021/06/16 10:11:52;;;;;;;5.97;5.67;;;23.10;30.80;;;;;;5001708;28;20427;-81
2021/06/16 10:14:17;;;;;;;5.87;5.57;;;23.10;30.90;;;;;;5017364;28;20521;-79
2021/06/16 10:16:46;;;;;;;6.33;5.93;;;23.10;31.10;;;;;;5035545;28;20187;-80
2021/06/16 10:19:13;;;;;;;5.50;5.20;;;23.10;31.30;;;;;;5076792;28;20558;-81
2021/06/16 10:21:39;;;;;;;6.13;5.73;;;23.10;31.20;;;;;;5079345;28;20418;-79
2021/06/16 10:24:09;;;;;;;6.10;5.80;;;23.10;31.50;;;;;;5077947;28;20468;-81
2021/06/16 10:26:35;;;;;;;6.67;6.20;;;23.10;31.40;;;;;;5044234;28;20540;-79
2021/06/16 10:29:04;;;;;;;5.57;5.03;;;23.10;31.50;;;;;;5077975;28;20916;-78
2021/06/16 10:31:37;;;;;;;6.43;5.93;;;23.10;31.60;;;;;;5079101;28;20181;-79
2021/06/16 10:34:02;;;;;;;6.30;5.90;;;23.20;31.10;;;;;;5078512;28;20801;-79
2021/06/16 10:36:28;;;;;;;5.70;5.30;;;23.30;30.60;;;;;;5076530;28;20413;-79
2021/06/16 10:39:02;;;;;;;5.97;5.67;;;23.30;30.50;;;;;;5076679;28;20633;-78
2021/06/16 10:41:37;;;;;;;6.07;5.60;;;23.30;30.60;;;;;;5076801;28;20234;-78
2021/06/16 10:44:14;;;;;;;6.27;5.77;;;23.30;30.50;;;;;;5075897;28;20490;-79
2021/06/16 10:47:26;;;;;;;6.10;5.60;;;23.30;30.40;;;;;;5075887;28;20807;-79
2021/06/16 10:50:33;;;;;;;6.50;6.03;;;23.30;30.40;;;;;;5075968;28;20544;-80
2021/06/16 10:53:23;;;;;;;6.40;6.00;;;23.30;30.40;;;;;;5076458;28;20542;-78
2021/06/16 10:55:52;;;;;;;6.73;6.23;;;23.30;30.40;;;;;;5076096;28;20410;-79
2021/06/16 10:58:45;;;;;;;6.70;6.20;;;23.30;30.20;;;;;;5075904;28;20511;-79
2021/06/16 11:01:19;;;;;;;6.20;5.90;;;23.30;30.10;;;;;;5083659;28;20439;-79
2021/06/16 11:03:54;;;;;;;6.30;6.00;;;23.40;30.20;;;;;;5092363;28;20609;-80
2021/06/16 11:06:32;;;;;;;5.77;5.37;;;23.40;30.20;;;;;;5094052;28;20782;-81
2021/06/16 11:09:03;;;;;;;6.10;5.70;;;23.40;30.00;;;;;;5094025;28;20923;-79
2021/06/16 11:11:49;;;;;;;6.30;5.90;;;23.40;30.00;;;;;;5096685;28;20911;-79
2021/06/16 11:15:23;;;;;;;5.70;5.40;;;23.40;30.20;;;;;;5093991;28;20444;-80
2021/06/16 11:18:18;;;;;;;7.17;6.60;;;23.40;30.50;;;;;;5093521;28;20934;-79
2021/06/16 11:20:59;;;;;;;6.93;6.40;;;23.30;30.30;;;;;;5097485;28;20452;-78
2021/06/16 11:23:28;;;;;;;8.03;7.23;;;23.40;30.20;;;;;;5097567;28;20474;-78
2021/06/16 11:26:12;;;;;;;6.97;6.47;;;23.40;30.30;;;;;;5097524;28;20456;-79
2021/06/16 11:28:51;;;;;;;;;;;;;;;;;;;;;
2021/06/16 11:31:18;;;;;;;7.30;6.63;;;23.40;30.10;;;;;;5096809;28;20411;-79
2021/06/16 11:39:06;;;;;;;6.80;6.40;;;23.40;30.00;;;;;;4717777;26;21105;-79
2021/06/16 11:41:34;;;;;;;6.10;5.70;;;23.40;29.90;;;;;;5000650;28;20413;-78
2021/06/16 11:44:11;;;;;;;7.80;7.10;;;23.50;30.00;;;;;;4999900;28;20465;-78
2021/06/16 11:46:41;;;;;;;7.37;6.77;;;23.50;29.90;;;;;;4995569;28;20427;-77
2021/06/16 11:49:38;;;;;;;6.27;5.90;;;23.50;29.50;;;;;;4998193;28;20417;-78
2021/06/16 11:52:06;;;;;;;7.27;6.80;;;23.60;29.60;;;;;;4998619;28;20409;-78
2021/06/16 11:54:43;;;;;;;7.37;6.90;;;23.60;29.70;;;;;;4997952;28;20441;-77
2021/06/16 11:57:13;;;;;;;6.77;6.30;;;23.50;29.80;;;;;;4993859;28;20440;-78
2021/06/16 11:59:52;;;;;;;7.23;6.80;;;23.50;29.70;;;;;;4989720;28;20795;-80
2021/06/16 12:02:39;;;;;;;7.30;6.70;;;23.50;29.90;;;;;;5000351;28;20449;-79
2021/06/16 12:05:12;;;;;;;6.50;6.10;;;23.50;30.00;;;;;;4998100;28;20469;-81
2021/06/16 12:07:52;;;;;;;6.40;5.90;;;23.50;30.00;;;;;;4998002;28;20421;-77
2021/06/16 12:10:29;;;;;;;6.63;6.20;;;23.50;29.90;;;;;;4997958;28;20409;-77
2021/06/16 12:13:41;;;;;;;;;;;;;;;;;;;;;
2021/06/16 12:16:40;;;;;;;6.80;6.37;;;23.50;29.70;;;;;;5001670;28;20512;-81
2021/06/16 12:19:18;;;;;;;6.40;5.97;;;23.50;29.60;;;;;;4974054;28;20449;-77
2021/06/16 12:21:56;;;;;;;6.53;6.17;;;23.50;29.90;;;;;;4995206;28;20428;-79
2021/06/16 12:24:23;;;;;;;6.90;6.30;;;23.50;29.50;;;;;;4995235;28;20831;-78
2021/06/16 12:27:05;;;;;;;7.00;6.50;;;23.50;29.60;;;;;;4994538;28;20806;-80
2021/06/16 12:29:45;;;;;;;6.37;5.97;;;23.60;29.90;;;;;;4980752;28;20429;-80
2021/06/16 12:32:12;;;;;;;7.10;6.70;;;23.60;29.90;;;;;;4997386;28;20475;-78
2021/06/16 12:34:55;;;;;;;6.67;6.27;;;23.50;29.80;;;;;;4998293;28;20444;-78
2021/06/16 12:37:21;;;;;;;6.80;6.20;;;23.60;29.50;;;;;;4998507;28;20421;-78
2021/06/16 12:39:59;;;;;;;6.40;5.90;;;23.60;29.40;;;;;;4997211;28;20471;-79
2021/06/16 12:42:36;;;;;;;6.33;5.93;;;23.60;29.30;;;;;;4995663;28;20683;-79
2021/06/16 12:45:02;;;;;;;7.07;6.57;;;23.70;29.00;;;;;;4995145;28;20448;-78
2021/06/16 12:47:33;;;;;;;9.73;6.90;;;23.70;29.20;;;;;;4995882;28;20425;-78
2021/06/16 12:50:00;;;;;;;6.83;6.40;;;23.70;29.40;;;;;;4995145;28;20503;-78
2021/06/16 12:52:55;;;;;;;6.87;6.37;;;23.60;29.40;;;;;;4995745;28;20444;-79
2021/06/16 12:55:37;;;;;;;7.73;7.03;;;23.60;29.40;;;;;;4996696;28;20421;-79
2021/06/16 12:58:10;;;;;;;7.30;6.80;;;23.70;29.50;;;;;;4997199;28;20413;-79
2021/06/16 13:00:36;;;;;;;7.17;6.57;;;23.60;29.40;;;;;;4995178;28;20436;-78
2021/06/16 13:03:22;;;;;;;6.70;6.30;;;23.70;29.10;;;;;;4978870;28;20971;-79
2021/06/16 13:05:59;;;;;;;6.40;6.00;;;23.80;28.80;;;;;;4995833;28;20182;-79
2021/06/16 13:08:51;;;;;;;6.90;6.40;;;23.80;29.00;;;;;;4995406;28;20421;-80
2021/06/16 13:11:31;;;;;;;6.90;6.50;;;23.80;29.20;;;;;;4995743;28;20424;-82
2021/06/16 13:14:27;;;;;;;6.50;5.90;;;23.70;29.10;;;;;;4995773;28;20432;-79
2021/06/16 13:17:11;;;;;;;7.07;6.67;;;23.70;29.20;;;;;;4994719;28;20943;-78
2021/06/16 13:19:56;;;;;;;5.63;5.33;;;23.70;29.30;;;;;;4994288;28;20417;-80
2021/06/16 13:22:48;;;;;;;7.37;6.53;;;23.70;29.40;;;;;;4995541;28;20452;-79
2021/06/16 13:25:33;;;;;;;7.53;6.93;;;23.70;29.60;;;;;;4995559;28;20433;-78
2021/06/16 13:28:51;;;;;;;7.97;6.97;;;23.70;29.40;;;;;;4996500;28;20416;-78
2021/06/16 13:31:19;;;;;;;6.93;6.23;;;23.70;29.30;;;;;;4993530;28;20421;-78